Time;durP1;ratioP1;P1;durP2;ratioP2;P2;SDS_P1;SDS_P2;PMS_P1;PMS_P2;Temp;Humidity;BMP_temperature;BMP_pressure;BME280_temperature;BME280_humidity;BME280_pressure;Samples;Min_cycle;Max_cycle;Signal;HPM_P1;HPM_P2
2022/09/28 00:01:07;;;;;;;15.37;8.17;;;;;;;;;;5086949;28;20077;-71
2022/09/28 00:03:33;;;;;;;16.15;7.85;;;;;;;;;;5051982;28;20052;-71
2022/09/28 00:06:06;;;;;;;16.67;7.13;;;;;;;;;;5067352;28;20044;-72
2022/09/28 00:08:33;;;;;;;15.27;7.75;;;;;;;;;;5083232;28;20429;-72
2022/09/28 00:11:00;;;;;;;18.98;8.93;;;;;;;;;;5069990;28;20052;-71
2022/09/28 00:13:27;;;;;;;13.23;7.88;;;;;;;;;;5069386;28;20110;-72
2022/09/28 00:16:10;;;;;;;17.73;8.85;;;;;;;;;;5069242;28;20105;-72
2022/09/28 00:18:36;;;;;;;18.80;9.15;;;;;;;;;;5071294;28;20052;-72
2022/09/28 00:21:04;;;;;;;14.80;8.90;;;;;;;;;;5047649;28;20349;-71
2022/09/28 00:23:30;;;;;;;17.70;9.57;;;;;;;;;;5079311;28;20105;-71
2022/09/28 00:26:01;;;;;;;16.27;9.60;;;;;;;;;;5087106;28;20067;-71
2022/09/28 00:28:27;;;;;;;19.63;9.73;;;;;;;;;;5089157;28;20471;-71
2022/09/28 00:30:55;;;;;;;19.45;10.57;;;;;;;;;;5070574;28;20576;-71
2022/09/28 00:33:21;;;;;;;16.83;10.07;;;;;;;;;;5058410;28;20047;-71
2022/09/28 00:35:54;;;;;;;18.48;9.43;;;;;;;;;;5089404;28;20484;-71
2022/09/28 00:38:20;;;;;;;18.33;10.32;;;;;;;;;;5087197;28;20223;-71
2022/09/28 00:40:46;;;;;;;19.10;11.13;;;;;;;;;;5070859;28;20044;-71
2022/09/28 00:43:17;;;;;;;22.75;12.05;;;;;;;;;;5066401;28;20382;-71
2022/09/28 00:45:44;;;;;;;17.30;9.57;;;;;;;;;;5063878;28;20150;-71
2022/09/28 00:48:10;;;;;;;;;;;;;;;;;;5071210;28;20059;-72
2022/09/28 00:50:36;;;;;;;19.65;11.07;;;;;;;;;;5067001;28;20829;-71
2022/09/28 00:53:08;;;;;;;19.90;11.10;;;;;;;;;;5087004;28;20059;-71
2022/09/28 00:55:46;;;;;;;19.98;11.35;;;;;;;;;;5034848;28;20045;-71
2022/09/28 00:58:15;;;;;;;18.30;10.88;;;;;;;;;;5069014;28;20135;-72
2022/09/28 01:00:41;;;;;;;19.48;11.35;;;;;;;;;;5074423;28;20387;-72
2022/09/28 01:03:08;;;;;;;21.38;12.13;;;;;;;;;;5069425;28;20476;-71
2022/09/28 01:05:34;;;;;;;18.67;11.32;;;;;;;;;;5068056;28;20048;-71
2022/09/28 01:08:01;;;;;;;18.60;10.95;;;;;;;;;;5084956;28;20460;-72
2022/09/28 01:10:29;;;;;;;20.70;12.02;;;;;;;;;;5085565;28;20047;-71
2022/09/28 01:12:55;;;;;;;18.73;11.00;;;;;;;;;;5079737;28;20409;-72
2022/09/28 01:15:22;;;;;;;23.63;12.13;;;;;;;;;;5068296;28;20056;-72
2022/09/28 01:18:06;;;;;;;23.30;13.05;;;;;;;;;;5054591;28;20036;-72
2022/09/28 01:20:34;;;;;;;19.98;11.23;;;;;;;;;;5072113;28;20485;-71
2022/09/28 01:23:08;;;;;;;22.55;12.05;;;;;;;;;;5069607;28;20104;-72
2022/09/28 01:25:40;;;;;;;19.73;10.63;;;;;;;;;;5077793;28;20128;-73
2022/09/28 01:28:12;;;;;;;19.33;10.98;;;;;;;;;;5068140;28;20053;-72
2022/09/28 01:30:55;;;;;;;18.70;11.30;;;;;;;;;;5074914;28;20128;-72
2022/09/28 01:33:23;;;;;;;18.95;11.48;;;;;;;;;;5081293;28;20052;-72
2022/09/28 01:35:59;;;;;;;18.75;11.40;;;;;;;;;;5081236;28;20452;-72
2022/09/28 01:38:28;;;;;;;18.13;11.07;;;;;;;;;;5088148;28;20187;-71
2022/09/28 01:40:55;;;;;;;18.65;11.27;;;;;;;;;;5082027;28;20376;-72
2022/09/28 01:43:26;;;;;;;20.77;12.23;;;;;;;;;;5088931;28;20875;-71
2022/09/28 01:46:10;;;;;;;17.88;10.77;;;;;;;;;;5076441;28;20351;-72
2022/09/28 01:48:43;;;;;;;21.00;12.43;;;;;;;;;;5072146;28;20075;-71
2022/09/28 01:51:12;;;;;;;22.02;12.55;;;;;;;;;;5077207;28;20094;-72
2022/09/28 01:53:43;;;;;;;18.85;11.93;;;;;;;;;;5073987;28;20180;-71
2022/09/28 01:56:11;;;;;;;20.55;12.75;;;;;;;;;;5090823;28;20040;-72
2022/09/28 01:58:39;;;;;;;19.30;11.98;;;;;;;;;;5092634;28;20076;-71
2022/09/28 02:01:08;;;;;;;24.13;13.18;;;;;;;;;;5085627;28;20060;-71
2022/09/28 02:03:53;;;;;;;21.52;11.98;;;;;;;;;;5092062;28;20126;-71
2022/09/28 02:06:26;;;;;;;22.10;13.18;;;;;;;;;;5089449;28;20040;-71
2022/09/28 02:08:54;;;;;;;24.17;14.18;;;;;;;;;;5089236;28;20183;-71
2022/09/28 02:11:21;;;;;;;25.25;13.32;;;;;;;;;;5071907;28;20087;-71
2022/09/28 02:14:06;;;;;;;21.92;13.10;;;;;;;;;;5091892;28;20048;-71
2022/09/28 02:16:39;;;;;;;25.45;15.18;;;;;;;;;;5072218;28;20051;-71
2022/09/28 02:19:06;;;;;;;23.00;14.95;;;;;;;;;;5053102;28;20066;-71
2022/09/28 02:21:52;;;;;;;25.55;13.90;;;;;;;;;;5070241;28;20068;-71
2022/09/28 02:24:23;;;;;;;24.20;14.07;;;;;;;;;;5055651;28;20078;-71
2022/09/28 02:26:50;;;;;;;27.23;16.45;;;;;;;;;;5071328;28;20044;-71
2022/09/28 02:29:16;;;;;;;27.77;16.38;;;;;;;;;;5052675;28;20048;-71
2022/09/28 02:31:42;;;;;;;23.38;14.48;;;;;;;;;;5075148;28;20401;-71
2022/09/28 02:34:08;;;;;;;26.73;16.45;;;;;;;;;;5072178;28;20051;-71
2022/09/28 02:36:34;;;;;;;25.65;14.65;;;;;;;;;;5071050;28;20044;-71
2022/09/28 02:39:01;;;;;;;25.20;15.02;;;;;;;;;;5083251;28;20126;-70
2022/09/28 02:41:27;;;;;;;;;;;;;;;;;;5087146;28;20112;-71
2022/09/28 02:44:05;;;;;;;24.85;14.40;;;;;;;;;;5074202;28;20022;-70
2022/09/28 02:47:00;;;;;;;25.05;15.23;;;;;;;;;;5070328;28;20670;-71
2022/09/28 02:49:48;;;;;;;25.15;15.57;;;;;;;;;;4998461;28;20113;-71
2022/09/28 02:52:17;;;;;;;30.80;18.30;;;;;;;;;;5083433;28;20048;-72
2022/09/28 02:54:46;;;;;;;28.75;17.83;;;;;;;;;;5083699;28;20124;-71
2022/09/28 02:57:30;;;;;;;25.73;15.57;;;;;;;;;;5090305;28;20055;-71
2022/09/28 03:00:13;;;;;;;29.73;17.88;;;;;;;;;;5079074;28;20055;-72
2022/09/28 03:02:45;;;;;;;28.48;17.45;;;;;;;;;;5070708;28;20044;-71
2022/09/28 03:05:14;;;;;;;28.08;17.45;;;;;;;;;;5052238;28;20233;-71
2022/09/28 03:07:46;;;;;;;31.23;17.67;;;;;;;;;;5070090;28;20045;-71
2022/09/28 03:10:24;;;;;;;32.85;19.48;;;;;;;;;;5070280;28;20080;-71
2022/09/28 03:12:51;;;;;;;30.80;17.60;;;;;;;;;;5069552;28;20495;-71
2022/09/28 03:15:22;;;;;;;34.75;18.40;;;;;;;;;;5070648;28;20071;-71
2022/09/28 03:17:49;;;;;;;91.25;22.50;;;;;;;;;;5070070;28;20070;-71
2022/09/28 03:20:15;;;;;;;32.10;18.75;;;;;;;;;;5050939;28;20127;-71
2022/09/28 03:22:41;;;;;;;40.08;17.98;;;;;;;;;;5051844;28;20052;-71
2022/09/28 03:25:07;;;;;;;146.52;24.25;;;;;;;;;;5070099;28;20051;-71
2022/09/28 03:27:33;;;;;;;;;;;;;;;;;;5071948;28;20041;-71
2022/09/28 03:29:59;;;;;;;91.10;18.60;;;;;;;;;;5089804;28;19931;-71
2022/09/28 03:32:25;;;;;;;68.95;18.10;;;;;;;;;;5089384;28;20112;-71
2022/09/28 03:34:51;;;;;;;67.70;17.73;;;;;;;;;;5051124;28;20388;-71
2022/09/28 03:37:17;;;;;;;122.75;17.10;;;;;;;;;;5069608;28;20049;-71
2022/09/28 03:39:44;;;;;;;82.72;16.63;;;;;;;;;;5071329;28;20067;-71
2022/09/28 03:42:10;;;;;;;33.05;15.43;;;;;;;;;;5071115;28;20070;-71
2022/09/28 03:44:36;;;;;;;117.03;18.90;;;;;;;;;;5067900;28;20113;-71
2022/09/28 03:47:02;;;;;;;99.93;18.13;;;;;;;;;;5052606;28;20060;-71
2022/09/28 03:49:28;;;;;;;83.32;18.10;;;;;;;;;;5068679;28;20189;-71
2022/09/28 03:51:54;;;;;;;85.68;18.33;;;;;;;;;;5069316;28;20052;-71
2022/09/28 03:54:20;;;;;;;114.53;16.63;;;;;;;;;;5070892;28;20040;-71
2022/09/28 03:56:46;;;;;;;68.30;16.33;;;;;;;;;;5079779;28;20050;-70
2022/09/28 03:59:12;;;;;;;48.65;15.70;;;;;;;;;;5069447;28;20125;-71
2022/09/28 04:01:38;;;;;;;104.93;16.50;;;;;;;;;;5069106;28;20044;-71
2022/09/28 04:04:04;;;;;;;229.02;21.02;;;;;;;;;;5052235;28;20044;-72
2022/09/28 04:06:30;;;;;;;178.30;18.33;;;;;;;;;;5080064;28;20067;-71
2022/09/28 04:08:56;;;;;;;202.20;18.80;;;;;;;;;;5055170;28;20129;-71
2022/09/28 04:11:23;;;;;;;93.38;14.45;;;;;;;;;;5055910;28;20048;-72
2022/09/28 04:13:49;;;;;;;93.18;14.15;;;;;;;;;;5088662;28;20094;-71
2022/09/28 04:16:16;;;;;;;172.73;16.08;;;;;;;;;;5088673;28;20123;-71
2022/09/28 04:18:42;;;;;;;108.60;14.95;;;;;;;;;;5085313;28;20082;-72
2022/09/28 04:21:10;;;;;;;126.32;14.88;;;;;;;;;;5090101;28;20119;-71
2022/09/28 04:23:38;;;;;;;68.25;13.35;;;;;;;;;;5088823;28;20177;-71
2022/09/28 04:26:05;;;;;;;86.97;13.93;;;;;;;;;;5074850;28;20048;-71
2022/09/28 04:31:17;;;;;;;113.40;18.83;;;;;;;;;;5084608;28;20445;-71
2022/09/28 04:33:44;;;;;;;55.65;12.98;;;;;;;;;;5056470;28;20048;-71
2022/09/28 04:36:10;;;;;;;73.30;15.18;;;;;;;;;;5070102;28;20166;-70
2022/09/28 04:38:36;;;;;;;49.00;14.93;;;;;;;;;;5069581;28;20044;-70
2022/09/28 04:41:02;;;;;;;24.88;13.98;;;;;;;;;;5069604;28;20053;-70
2022/09/28 04:43:29;;;;;;;20.95;13.68;;;;;;;;;;5070741;28;20377;-71
2022/09/28 04:46:01;;;;;;;26.10;13.65;;;;;;;;;;5077352;28;20049;-71
2022/09/28 04:48:28;;;;;;;20.70;12.70;;;;;;;;;;5084383;28;20103;-71
2022/09/28 04:50:54;;;;;;;;;;;;;;;;;;5087260;28;20040;-71
2022/09/28 04:53:20;;;;;;;19.27;11.95;;;;;;;;;;5088345;28;19920;-71
2022/09/28 04:55:54;;;;;;;21.80;13.10;;;;;;;;;;5068111;28;20131;-71
2022/09/28 04:58:20;;;;;;;22.88;13.88;;;;;;;;;;5069721;28;20433;-70
2022/09/28 05:00:47;;;;;;;21.95;13.38;;;;;;;;;;5067444;28;20137;-71
2022/09/28 05:03:13;;;;;;;23.67;14.73;;;;;;;;;;5083880;28;20048;-72
2022/09/28 05:05:43;;;;;;;22.48;13.02;;;;;;;;;;5053217;28;20062;-71
2022/09/28 05:08:09;;;;;;;26.88;13.95;;;;;;;;;;5075247;28;20119;-71
2022/09/28 05:10:41;;;;;;;22.25;14.05;;;;;;;;;;5071272;28;20052;-71
2022/09/28 05:13:08;;;;;;;23.50;14.30;;;;;;;;;;5068561;28;20512;-70
2022/09/28 05:15:34;;;;;;;;;;;;;;;;;;5069162;28;20048;-70
2022/09/28 05:18:00;;;;;;;24.45;13.82;;;;;;;;;;5069878;28;20002;-71
2022/09/28 05:20:26;;;;;;;21.73;13.32;;;;;;;;;;5072383;28;20080;-71
2022/09/28 05:22:52;;;;;;;23.60;14.70;;;;;;;;;;5069549;28;20102;-71
2022/09/28 05:25:18;;;;;;;25.25;14.23;;;;;;;;;;5036091;28;20059;-70
2022/09/28 05:27:45;;;;;;;23.33;14.38;;;;;;;;;;5067283;28;20056;-70
2022/09/28 05:30:11;;;;;;;22.73;14.27;;;;;;;;;;5065691;28;20036;-71
2022/09/28 05:32:40;;;;;;;25.30;14.82;;;;;;;;;;5076698;28;20106;-72
2022/09/28 05:35:07;;;;;;;21.02;13.98;;;;;;;;;;5080532;28;20036;-71
2022/09/28 05:37:35;;;;;;;23.00;15.27;;;;;;;;;;5061289;28;20047;-70
2022/09/28 05:40:02;;;;;;;24.90;15.55;;;;;;;;;;5076318;28;20083;-71
2022/09/28 05:42:29;;;;;;;24.40;14.75;;;;;;;;;;5068191;28;20051;-71
2022/09/28 05:44:57;;;;;;;25.17;15.70;;;;;;;;;;5078084;28;20138;-71
2022/09/28 05:47:24;;;;;;;27.77;15.20;;;;;;;;;;5084825;28;20063;-72
2022/09/28 05:49:51;;;;;;;26.50;14.82;;;;;;;;;;5086164;28;20066;-70
2022/09/28 05:52:17;;;;;;;;;;;;;;;;;;5079962;28;20043;-71
2022/09/28 05:54:43;;;;;;;23.90;13.77;;;;;;;;;;5077083;28;20321;-71
2022/09/28 05:57:09;;;;;;;25.77;15.82;;;;;;;;;;5079535;28;20605;-72
2022/09/28 05:59:35;;;;;;;25.67;15.50;;;;;;;;;;5077203;28;20109;-72
2022/09/28 06:02:02;;;;;;;25.58;15.20;;;;;;;;;;5052753;28;20518;-72
2022/09/28 06:04:28;;;;;;;24.75;14.88;;;;;;;;;;5077009;28;20135;-72
2022/09/28 06:06:55;;;;;;;23.58;15.15;;;;;;;;;;5073500;28;20151;-72
2022/09/28 06:09:22;;;;;;;23.65;14.73;;;;;;;;;;5068664;28;20048;-75
2022/09/28 06:11:49;;;;;;;25.58;15.23;;;;;;;;;;5069641;28;20112;-72
2022/09/28 06:14:15;;;;;;;26.92;16.00;;;;;;;;;;5068680;28;20472;-72
2022/09/28 06:16:41;;;;;;;23.90;14.98;;;;;;;;;;5073138;28;20036;-72
2022/09/28 06:19:11;;;;;;;23.60;15.30;;;;;;;;;;5083599;28;20127;-71
2022/09/28 06:21:40;;;;;;;23.83;15.38;;;;;;;;;;5076662;28;20036;-71
2022/09/28 06:24:06;;;;;;;26.83;16.30;;;;;;;;;;5059780;28;20203;-71
2022/09/28 06:26:32;;;;;;;25.08;14.40;;;;;;;;;;5083859;28;20045;-71
2022/09/28 06:28:59;;;;;;;23.52;14.75;;;;;;;;;;5069361;28;20127;-72
2022/09/28 06:31:26;;;;;;;22.05;13.30;;;;;;;;;;5074978;28;20414;-71
2022/09/28 06:33:52;;;;;;;22.75;15.05;;;;;;;;;;5085222;28;20055;-72
2022/09/28 06:36:19;;;;;;;26.88;15.18;;;;;;;;;;5054361;28;21270;-72
2022/09/28 06:38:46;;;;;;;22.92;14.90;;;;;;;;;;5066533;28;20326;-72
2022/09/28 06:41:12;;;;;;;23.67;15.00;;;;;;;;;;5081511;28;20088;-71
2022/09/28 06:43:41;;;;;;;23.60;13.82;;;;;;;;;;5084703;28;20051;-72
2022/09/28 06:46:12;;;;;;;20.92;14.45;;;;;;;;;;5082471;28;20682;-70
2022/09/28 06:48:39;;;;;;;24.98;14.82;;;;;;;;;;5067751;28;20063;-70
2022/09/28 06:51:05;;;;;;;24.20;14.10;;;;;;;;;;5083946;28;20140;-72
2022/09/28 06:53:32;;;;;;;24.38;15.20;;;;;;;;;;5085773;28;20044;-71
2022/09/28 06:56:00;;;;;;;22.15;14.52;;;;;;;;;;5086227;28;20128;-72
2022/09/28 06:58:27;;;;;;;21.90;13.90;;;;;;;;;;5082691;28;20078;-72
2022/09/28 07:00:58;;;;;;;20.90;13.45;;;;;;;;;;5082667;28;20063;-72
2022/09/28 07:03:24;;;;;;;22.00;14.70;;;;;;;;;;5085524;28;20169;-72
2022/09/28 07:05:54;;;;;;;23.63;16.17;;;;;;;;;;5088025;28;20124;-72
2022/09/28 07:08:27;;;;;;;24.00;15.13;;;;;;;;;;5068956;28;20124;-72
2022/09/28 07:10:57;;;;;;;26.38;16.40;;;;;;;;;;5070291;28;20052;-72
2022/09/28 07:13:24;;;;;;;24.95;16.20;;;;;;;;;;5070153;28;20045;-72
2022/09/28 07:15:58;;;;;;;28.40;17.00;;;;;;;;;;5082879;28;20055;-72
2022/09/28 07:18:28;;;;;;;24.23;15.35;;;;;;;;;;5087837;28;20058;-72
2022/09/28 07:20:58;;;;;;;28.85;17.13;;;;;;;;;;5074465;28;20124;-71
2022/09/28 07:23:26;;;;;;;24.77;15.98;;;;;;;;;;5069992;28;20388;-72
2022/09/28 07:25:53;;;;;;;29.25;15.32;;;;;;;;;;5069587;28;20161;-71
2022/09/28 07:28:19;;;;;;;36.80;17.23;;;;;;;;;;5070623;28;20128;-71
2022/09/28 07:30:46;;;;;;;23.38;15.15;;;;;;;;;;5078712;28;20492;-71
2022/09/28 07:33:13;;;;;;;36.42;17.73;;;;;;;;;;5089160;28;20043;-71
2022/09/28 07:35:41;;;;;;;24.08;16.23;;;;;;;;;;5090685;28;20070;-71
2022/09/28 07:38:08;;;;;;;25.08;15.52;;;;;;;;;;5055478;28;20052;-71
2022/09/28 07:43:22;;;;;;;23.73;15.32;;;;;;;;;;5089861;28;20060;-71
2022/09/28 07:45:48;;;;;;;;;;;;;;;;;;5090307;28;20068;-72
2022/09/28 07:48:15;;;;;;;27.05;16.95;;;;;;;;;;5089538;28;20408;-72
2022/09/28 07:50:51;;;;;;;34.78;17.88;;;;;;;;;;5070766;28;20048;-71
2022/09/28 07:53:21;;;;;;;32.33;16.77;;;;;;;;;;5068933;28;20083;-71
2022/09/28 07:55:50;;;;;;;27.27;17.40;;;;;;;;;;5069881;28;20079;-71
2022/09/28 07:58:18;;;;;;;27.45;16.90;;;;;;;;;;5069213;28;20113;-71
2022/09/28 08:00:46;;;;;;;26.45;15.93;;;;;;;;;;5070518;28;20128;-72
2022/09/28 08:03:13;;;;;;;30.25;18.52;;;;;;;;;;5068249;28;20349;-72
2022/09/28 08:05:41;;;;;;;29.42;18.45;;;;;;;;;;5079014;28;20047;-72
2022/09/28 08:08:07;;;;;;;27.38;18.15;;;;;;;;;;5088558;28;20040;-72
2022/09/28 08:10:34;;;;;;;30.63;17.85;;;;;;;;;;5089677;28;20040;-72
2022/09/28 08:13:01;;;;;;;28.75;18.75;;;;;;;;;;5086663;28;20127;-72
2022/09/28 08:15:28;;;;;;;28.38;18.27;;;;;;;;;;5089147;28;20052;-72
2022/09/28 08:17:54;;;;;;;29.95;18.40;;;;;;;;;;5079572;28;20465;-72
2022/09/28 08:23:07;;;;;;;33.08;19.92;;;;;;;;;;5067991;28;20079;-72
2022/09/28 08:25:36;;;;;;;31.38;19.67;;;;;;;;;;5017819;28;20056;-71
2022/09/28 08:28:02;;;;;;;30.08;18.17;;;;;;;;;;5068953;28;20037;-71
2022/09/28 08:30:28;;;;;;;30.02;17.95;;;;;;;;;;5061397;28;20514;-71
2022/09/28 08:32:54;;;;;;;35.00;19.67;;;;;;;;;;5089158;28;20443;-71
2022/09/28 08:35:21;;;;;;;26.25;17.52;;;;;;;;;;5088857;28;20039;-71
2022/09/28 08:37:48;;;;;;;;;;;;;;;;;;5086736;28;20123;-71
2022/09/28 08:40:19;;;;;;;31.88;20.23;;;;;;;;;;5067010;28;19920;-72
2022/09/28 08:42:45;;;;;;;30.92;19.02;;;;;;;;;;5050334;28;20155;-72
2022/09/28 08:45:16;;;;;;;32.20;20.13;;;;;;;;;;5067346;28;20045;-71
2022/09/28 08:50:40;;;;;;;37.53;22.65;;;;;;;;;;5068717;28;20110;-72
2022/09/28 08:53:25;;;;;;;26.75;18.80;;;;;;;;;;5066961;28;20122;-71
2022/09/28 08:55:52;;;;;;;31.70;19.48;;;;;;;;;;5088027;28;20070;-73
2022/09/28 08:58:23;;;;;;;28.40;18.35;;;;;;;;;;5082072;28;20048;-72
2022/09/28 09:00:50;;;;;;;31.10;16.98;;;;;;;;;;5043573;28;20121;-72
2022/09/28 09:03:19;;;;;;;23.35;14.85;;;;;;;;;;5059115;28;20083;-73
2022/09/28 09:05:45;;;;;;;26.27;16.45;;;;;;;;;;5077341;28;20075;-73
2022/09/28 09:08:26;;;;;;;24.98;15.95;;;;;;;;;;5080712;28;20414;-73
2022/09/28 09:11:19;;;;;;;25.05;14.23;;;;;;;;;;5072497;28;20365;-74
2022/09/28 09:13:55;;;;;;;19.50;12.13;;;;;;;;;;5032324;28;20059;-73
2022/09/28 09:16:24;;;;;;;21.13;12.38;;;;;;;;;;5053144;28;20554;-74
2022/09/28 09:19:09;;;;;;;19.75;12.02;;;;;;;;;;5050829;28;20048;-73
2022/09/28 09:21:42;;;;;;;17.50;11.00;;;;;;;;;;5068333;28;20439;-74
2022/09/28 09:24:20;;;;;;;18.25;12.05;;;;;;;;;;5070757;28;20048;-73
2022/09/28 09:26:49;;;;;;;20.08;12.88;;;;;;;;;;5067807;28;20469;-73
2022/09/28 09:29:15;;;;;;;21.38;11.30;;;;;;;;;;5074690;28;20094;-74
2022/09/28 09:31:47;;;;;;;19.88;11.48;;;;;;;;;;5049099;28;20052;-74
2022/09/28 09:34:32;;;;;;;14.63;9.23;;;;;;;;;;5061431;28;20048;-72
2022/09/28 09:36:58;;;;;;;16.30;9.00;;;;;;;;;;5070555;28;20040;-73
2022/09/28 09:39:24;;;;;;;16.30;8.85;;;;;;;;;;5051283;28;20059;-73
2022/09/28 09:42:10;;;;;;;14.95;8.20;;;;;;;;;;5056830;28;20132;-73
2022/09/28 09:44:39;;;;;;;15.38;6.95;;;;;;;;;;5067845;28;20066;-73
2022/09/28 09:47:06;;;;;;;11.90;6.20;;;;;;;;;;5067244;28;20396;-73
2022/09/28 09:49:54;;;;;;;14.02;6.85;;;;;;;;;;5071427;28;20372;-74
2022/09/28 09:52:29;;;;;;;12.77;7.10;;;;;;;;;;5087438;28;20151;-73
2022/09/28 09:55:05;;;;;;;13.48;6.57;;;;;;;;;;5069384;28;20048;-74
2022/09/28 09:57:43;;;;;;;12.18;5.53;;;;;;;;;;5085051;28;20575;-73
2022/09/28 10:00:13;;;;;;;10.95;4.70;;;;;;;;;;5079726;28;20063;-74
2022/09/28 10:02:39;;;;;;;10.20;4.15;;;;;;;;;;5075852;28;20113;-73
2022/09/28 10:05:16;;;;;;;10.57;3.85;;;;;;;;;;5085164;28;20098;-73
2022/09/28 10:07:46;;;;;;;13.82;4.00;;;;;;;;;;5070717;28;20143;-73
2022/09/28 10:10:17;;;;;;;12.75;4.30;;;;;;;;;;5070592;28;20549;-72
2022/09/28 10:12:44;;;;;;;10.50;4.00;;;;;;;;;;5055454;28;20056;-72
2022/09/28 10:15:10;;;;;;;;;;;;;;;;;;5080835;28;20108;-72
2022/09/28 10:17:36;;;;;;;11.70;3.88;;;;;;;;;;5073068;28;19946;-73
2022/09/28 10:20:03;;;;;;;9.55;3.65;;;;;;;;;;5052881;28;20128;-73
2022/09/28 10:22:30;;;;;;;10.35;3.60;;;;;;;;;;5071824;28;20437;-73
2022/09/28 10:24:58;;;;;;;10.82;3.60;;;;;;;;;;5070720;28;20055;-73
2022/09/28 10:27:31;;;;;;;8.90;3.33;;;;;;;;;;5053270;28;20084;-73
2022/09/28 10:30:03;;;;;;;8.30;2.92;;;;;;;;;;5072755;28;20114;-73
2022/09/28 10:32:45;;;;;;;9.05;2.67;;;;;;;;;;5068094;28;20421;-72
2022/09/28 10:35:11;;;;;;;7.68;2.20;;;;;;;;;;5083468;28;20048;-73
2022/09/28 10:37:56;;;;;;;8.93;3.55;;;;;;;;;;5076850;28;20220;-73
2022/09/28 10:40:28;;;;;;;9.38;3.47;;;;;;;;;;5053877;28;20109;-72
2022/09/28 10:43:02;;;;;;;8.30;3.60;;;;;;;;;;5071657;28;20457;-73
2022/09/28 10:45:31;;;;;;;8.65;3.47;;;;;;;;;;5068836;28;20503;-72
2022/09/28 10:48:00;;;;;;;10.43;3.50;;;;;;;;;;5076096;28;20098;-73
2022/09/28 10:50:27;;;;;;;9.57;3.50;;;;;;;;;;5067311;28;20052;-73
2022/09/28 10:52:56;;;;;;;9.00;3.25;;;;;;;;;;5068155;28;20469;-73
2022/09/28 10:55:28;;;;;;;7.05;2.63;;;;;;;;;;5049748;28;20048;-72
2022/09/28 10:57:54;;;;;;;8.57;2.80;;;;;;;;;;5071299;28;20044;-74
2022/09/28 11:00:34;;;;;;;7.80;2.85;;;;;;;;;;5068116;28;20106;-72
2022/09/28 11:03:04;;;;;;;7.05;2.80;;;;;;;;;;5068542;28;20120;-75
2022/09/28 11:05:31;;;;;;;9.05;2.90;;;;;;;;;;5074758;28;20044;-75
2022/09/28 11:07:58;;;;;;;10.35;3.20;;;;;;;;;;5089851;28;20460;-76
2022/09/28 11:10:26;;;;;;;7.25;2.55;;;;;;;;;;5080318;28;20044;-75
2022/09/28 11:12:53;;;;;;;9.70;3.10;;;;;;;;;;5078751;28;20052;-74
2022/09/28 11:15:20;;;;;;;7.78;2.60;;;;;;;;;;5071429;28;20425;-74
2022/09/28 11:17:47;;;;;;;7.40;2.55;;;;;;;;;;5073136;28;20054;-74
2022/09/28 11:20:28;;;;;;;7.63;2.20;;;;;;;;;;5077836;28;20060;-75
2022/09/28 11:23:15;;;;;;;6.32;2.10;;;;;;;;;;5068796;28;20094;-74
2022/09/28 11:25:41;;;;;;;5.95;2.03;;;;;;;;;;5084029;28;20413;-74
2022/09/28 11:28:22;;;;;;;6.88;2.05;;;;;;;;;;5082124;28;20101;-74
2022/09/28 11:30:50;;;;;;;6.45;2.20;;;;;;;;;;5072425;28;20123;-75
2022/09/28 11:33:36;;;;;;;5.85;2.08;;;;;;;;;;5074936;28;20062;-73
2022/09/28 11:36:15;;;;;;;7.78;2.30;;;;;;;;;;5078261;28;20044;-74
2022/09/28 11:38:52;;;;;;;6.43;2.17;;;;;;;;;;5068811;28;20164;-75
2022/09/28 11:41:24;;;;;;;8.63;3.03;;;;;;;;;;5089197;28;20055;-73
2022/09/28 11:43:56;;;;;;;7.75;2.40;;;;;;;;;;5075926;28;20112;-74
2022/09/28 11:46:33;;;;;;;5.10;1.95;;;;;;;;;;5082280;28;20109;-73
2022/09/28 11:49:03;;;;;;;10.10;2.10;;;;;;;;;;5069338;28;20056;-74
2022/09/28 11:51:31;;;;;;;4.35;1.85;;;;;;;;;;5046107;28;20036;-73
2022/09/28 11:54:13;;;;;;;3.97;1.80;;;;;;;;;;5071173;28;20068;-75
2022/09/28 11:56:48;;;;;;;5.82;1.85;;;;;;;;;;5075542;28;20080;-75
2022/09/28 11:59:21;;;;;;;4.72;2.13;;;;;;;;;;5089584;28;20125;-76
2022/09/28 12:01:55;;;;;;;5.03;1.80;;;;;;;;;;5083703;28;20067;-75
2022/09/28 12:04:24;;;;;;;4.68;1.70;;;;;;;;;;5088974;28;20106;-75
2022/09/28 12:06:53;;;;;;;4.07;1.60;;;;;;;;;;5045954;28;20037;-74
2022/09/28 12:09:24;;;;;;;5.78;1.80;;;;;;;;;;5069028;28;20067;-75
2022/09/28 12:11:53;;;;;;;7.13;2.10;;;;;;;;;;5080722;28;20340;-74
2022/09/28 12:14:22;;;;;;;8.70;2.10;;;;;;;;;;5088100;28;20135;-75
2022/09/28 12:17:03;;;;;;;8.05;2.22;;;;;;;;;;5088252;28;20040;-75
2022/09/28 12:19:34;;;;;;;7.60;2.20;;;;;;;;;;5069300;28;20037;-74
2022/09/28 12:22:02;;;;;;;6.53;2.30;;;;;;;;;;5087857;28;20043;-76
2022/09/28 12:24:46;;;;;;;7.63;2.17;;;;;;;;;;5079812;28;20051;-75
2022/09/28 12:27:15;;;;;;;5.43;2.08;;;;;;;;;;5072276;28;20481;-76
2022/09/28 12:29:46;;;;;;;6.07;2.13;;;;;;;;;;5059204;28;20043;-75
2022/09/28 12:32:31;;;;;;;7.97;2.15;;;;;;;;;;5075614;28;20334;-75
2022/09/28 12:34:57;;;;;;;6.57;2.30;;;;;;;;;;5070580;28;20807;-75
2022/09/28 12:37:35;;;;;;;5.18;1.90;;;;;;;;;;5072827;28;20086;-73
2022/09/28 12:40:07;;;;;;;9.27;2.42;;;;;;;;;;5092973;28;20483;-75
2022/09/28 12:42:52;;;;;;;9.23;2.13;;;;;;;;;;5088638;28;20399;-73
2022/09/28 12:45:37;;;;;;;5.70;2.03;;;;;;;;;;5068793;28;20119;-75
2022/09/28 12:48:09;;;;;;;7.80;2.90;;;;;;;;;;5050056;28;20048;-74
2022/09/28 12:50:50;;;;;;;7.57;2.30;;;;;;;;;;5078415;28;20116;-73
2022/09/28 12:53:37;;;;;;;7.57;2.75;;;;;;;;;;5086372;28;20051;-77
2022/09/28 12:56:05;;;;;;;9.23;2.80;;;;;;;;;;5084424;28;20147;-75
2022/09/28 12:58:31;;;;;;;8.50;3.00;;;;;;;;;;5066109;28;20067;-76
2022/09/28 13:00:57;;;;;;;8.60;3.40;;;;;;;;;;5049047;28;20251;-75
2022/09/28 13:03:35;;;;;;;5.18;2.08;;;;;;;;;;5086590;28;20044;-76
2022/09/28 13:06:10;;;;;;;3.70;1.70;;;;;;;;;;5047756;28;20052;-75
2022/09/28 13:08:42;;;;;;;4.57;1.80;;;;;;;;;;5086509;28;20364;-73
2022/09/28 13:11:08;;;;;;;5.28;1.70;;;;;;;;;;5079144;28;20062;-75
2022/09/28 13:13:53;;;;;;;6.53;2.00;;;;;;;;;;5086808;28;20411;-74
2022/09/28 13:16:40;;;;;;;6.30;2.20;;;;;;;;;;5063181;28;20052;-76
2022/09/28 13:19:24;;;;;;;4.38;1.92;;;;;;;;;;5067729;28;20091;-75
2022/09/28 13:21:51;;;;;;;6.97;2.28;;;;;;;;;;5071999;28;20058;-74
2022/09/28 13:24:25;;;;;;;5.43;2.00;;;;;;;;;;5075929;28;20080;-76
2022/09/28 13:26:51;;;;;;;5.05;1.80;;;;;;;;;;5072465;28;20040;-75
2022/09/28 13:29:18;;;;;;;5.68;1.80;;;;;;;;;;5083558;28;20507;-75
2022/09/28 13:31:49;;;;;;;5.78;1.90;;;;;;;;;;5068067;28;20052;-74
2022/09/28 13:34:19;;;;;;;5.82;2.10;;;;;;;;;;5086805;28;20044;-75
2022/09/28 13:36:45;;;;;;;6.70;2.40;;;;;;;;;;5084825;28;20040;-75
2022/09/28 13:39:11;;;;;;;;;;;;;;;;;;5066970;28;20048;-73
2022/09/28 13:41:39;;;;;;;7.10;2.50;;;;;;;;;;5085777;28;19926;-75
2022/09/28 13:44:11;;;;;;;8.60;2.35;;;;;;;;;;5089396;28;20483;-73
2022/09/28 13:46:49;;;;;;;8.32;3.30;;;;;;;;;;5086539;28;20047;-75
2022/09/28 13:49:19;;;;;;;10.82;3.67;;;;;;;;;;5067886;28;20052;-74
2022/09/28 13:51:57;;;;;;;7.45;3.00;;;;;;;;;;5086998;28;20051;-72
2022/09/28 13:54:46;;;;;;;7.20;2.47;;;;;;;;;;5088293;28;20115;-74
2022/09/28 13:57:24;;;;;;;6.10;2.20;;;;;;;;;;5078232;28;20052;-74
2022/09/28 13:59:50;;;;;;;7.63;2.50;;;;;;;;;;5087157;28;20398;-74
2022/09/28 14:02:35;;;;;;;6.70;2.13;;;;;;;;;;5083274;28;20455;-74
2022/09/28 14:05:03;;;;;;;5.55;2.20;;;;;;;;;;5088014;28;20472;-74
2022/09/28 14:07:35;;;;;;;4.30;1.92;;;;;;;;;;5086852;28;20036;-74
2022/09/28 14:10:16;;;;;;;3.92;2.00;;;;;;;;;;5089389;28;20052;-74
2022/09/28 14:12:50;;;;;;;4.65;2.00;;;;;;;;;;5071037;28;20055;-74
2022/09/28 14:15:28;;;;;;;7.45;2.00;;;;;;;;;;5086150;28;20117;-74
2022/09/28 14:17:54;;;;;;;5.35;1.83;;;;;;;;;;5087838;28;20036;-73
2022/09/28 14:20:23;;;;;;;2.92;1.60;;;;;;;;;;5067846;28;20356;-74
2022/09/28 14:22:52;;;;;;;4.68;1.70;;;;;;;;;;5088702;28;20460;-71
2022/09/28 14:25:24;;;;;;;6.30;1.85;;;;;;;;;;5084111;28;20132;-74
2022/09/28 14:28:01;;;;;;;5.30;1.73;;;;;;;;;;5088447;28;20068;-71
2022/09/28 14:30:45;;;;;;;4.13;1.50;;;;;;;;;;5087386;28;20076;-73
2022/09/28 14:33:16;;;;;;;3.80;1.60;;;;;;;;;;5089408;28;20048;-74
2022/09/28 14:35:44;;;;;;;4.90;1.60;;;;;;;;;;5084388;28;20141;-74
2022/09/28 14:41:13;;;;;;;5.35;1.83;;;;;;;;;;5079948;28;20075;-74
2022/09/28 14:43:43;;;;;;;5.40;1.60;;;;;;;;;;5085001;28;20067;-73
2022/09/28 14:46:18;;;;;;;5.35;1.90;;;;;;;;;;5086315;28;20058;-73
2022/09/28 14:48:47;;;;;;;3.08;1.52;;;;;;;;;;5088235;28;20044;-73
2022/09/28 14:51:39;;;;;;;5.93;1.50;;;;;;;;;;5084140;28;20659;-73
2022/09/28 14:54:09;;;;;;;6.57;2.10;;;;;;;;;;5083462;28;20181;-74
2022/09/28 14:56:55;;;;;;;4.72;1.70;;;;;;;;;;5051106;28;20048;-73
2022/09/28 14:59:23;;;;;;;4.75;1.80;;;;;;;;;;5088499;28;20075;-73
2022/09/28 15:02:01;;;;;;;7.13;1.70;;;;;;;;;;5084132;28;20138;-73